createdAt,value
2022-09-06T00:02:22.396Z,85.49
2022-09-06T00:04:49.411Z,85.83
2022-09-06T00:07:16.234Z,85.62
2022-09-06T00:09:43.059Z,85.79
2022-09-06T00:12:09.899Z,85.82
2022-09-06T00:14:36.777Z,85.67
2022-09-06T00:17:03.662Z,86.00
2022-09-06T00:19:30.529Z,85.62
2022-09-06T00:21:57.422Z,85.47
2022-09-06T00:24:24.285Z,85.01
2022-09-06T00:26:51.098Z,85.68
2022-09-06T00:29:18.043Z,85.45
2022-09-06T00:31:44.879Z,85.62
2022-09-06T00:34:11.750Z,85.80
2022-09-06T00:36:38.584Z,86.45
2022-09-06T00:39:05.432Z,86.44
2022-09-06T00:41:32.248Z,85.90
2022-09-06T00:43:59.030Z,86.17
2022-09-06T00:46:29.173Z,85.96
2022-09-06T00:49:09.707Z,86.41
2022-09-06T00:51:37.105Z,86.48
2022-09-06T00:54:06.702Z,86.48
2022-09-06T00:56:38.680Z,86.30
2022-09-06T00:59:05.582Z,86.46
2022-09-06T01:01:32.493Z,86.59
2022-09-06T01:04:00.095Z,86.76
2022-09-06T01:06:37.549Z,86.87
2022-09-06T01:09:48.079Z,86.76
2022-09-06T01:12:32.953Z,86.86
2022-09-06T01:15:34.482Z,87.35
2022-09-06T01:18:20.011Z,87.68
2022-09-06T01:21:14.737Z,87.82
2022-09-06T01:24:04.493Z,88.19
2022-09-06T01:27:15.746Z,88.25
2022-09-06T01:29:52.221Z,87.88
2022-09-06T01:32:27.873Z,87.82
2022-09-06T01:35:04.676Z,88.09
2022-09-06T01:37:31.858Z,87.75
2022-09-06T01:39:58.681Z,88.46
2022-09-06T01:42:30.151Z,88.37
2022-09-06T01:45:05.615Z,88.65
2022-09-06T01:47:42.070Z,88.24
2022-09-06T01:50:36.766Z,87.99
2022-09-06T01:53:22.018Z,87.98
2022-09-06T01:55:54.578Z,88.03
2022-09-06T01:58:44.951Z,88.44
2022-09-06T02:01:42.464Z,88.51
2022-09-06T02:04:36.366Z,88.64
2022-09-06T02:07:16.479Z,88.72
2022-09-06T02:09:48.680Z,88.82
2022-09-06T02:12:19.272Z,88.25
2022-09-06T02:15:35.750Z,88.20
2022-09-06T02:18:09.003Z,87.94
2022-09-06T02:20:42.189Z,87.74
2022-09-06T02:23:10.306Z,87.69
2022-09-06T02:25:47.404Z,87.79
2022-09-06T02:28:15.223Z,87.52
2022-09-06T02:30:46.657Z,87.58
2022-09-06T02:33:18.325Z,87.58
2022-09-06T02:35:50.329Z,87.54
2022-09-06T02:38:17.898Z,87.78
2022-09-06T02:40:46.155Z,87.85
2022-09-06T02:43:13.038Z,87.84
2022-09-06T02:45:39.941Z,87.71
2022-09-06T02:48:06.910Z,87.35
2022-09-06T02:50:33.798Z,87.04
2022-09-06T02:53:02.431Z,87.08
2022-09-06T02:55:29.381Z,87.33
2022-09-06T02:57:56.302Z,87.64
2022-09-06T03:00:23.083Z,87.86
2022-09-06T03:02:50.026Z,88.12
2022-09-06T03:05:17.033Z,88.25
2022-09-06T03:07:43.981Z,88.51
2022-09-06T03:10:10.757Z,88.42
2022-09-06T03:12:37.613Z,88.94
2022-09-06T03:15:04.861Z,89.66
2022-09-06T03:17:31.696Z,90.65
2022-09-06T03:19:58.471Z,91.62
2022-09-06T03:22:25.366Z,92.88
2022-09-06T03:24:52.168Z,93.54
2022-09-06T03:27:19.144Z,94.18
2022-09-06T03:29:45.993Z,94.74
2022-09-06T03:32:12.909Z,95.15
2022-09-06T03:34:39.736Z,95.11
2022-09-06T03:37:07.076Z,96.34
2022-09-06T03:39:34.174Z,98.99
2022-09-06T03:42:01.108Z,100.00
2022-09-06T03:44:27.954Z,100.00
2022-09-06T03:46:54.880Z,100.00
2022-09-06T03:49:21.837Z,100.00
2022-09-06T03:51:48.679Z,100.00
2022-09-06T03:54:15.597Z,100.00
2022-09-06T03:56:42.592Z,100.00
2022-09-06T03:59:09.393Z,100.00
2022-09-06T04:01:36.281Z,100.00
2022-09-06T04:04:03.408Z,100.00
2022-09-06T04:06:30.354Z,100.00
2022-09-06T04:08:57.084Z,100.00
2022-09-06T04:11:23.923Z,100.00
2022-09-06T04:13:50.799Z,100.00
2022-09-06T04:16:18.732Z,97.40
2022-09-06T04:18:45.826Z,91.26
2022-09-06T04:21:12.777Z,84.41
2022-09-06T04:23:40.147Z,80.42
2022-09-06T04:26:07.142Z,77.40
2022-09-06T04:28:33.999Z,77.80
2022-09-06T04:31:05.003Z,78.14
2022-09-06T04:33:35.016Z,83.35
2022-09-06T04:36:04.291Z,86.04
2022-09-06T04:38:35.899Z,82.64
2022-09-06T04:41:03.191Z,76.81
2022-09-06T04:43:30.007Z,70.77
2022-09-06T04:45:57.029Z,69.45
2022-09-06T04:48:23.890Z,67.10
2022-09-06T04:50:50.799Z,63.03
2022-09-06T04:53:17.668Z,64.01
2022-09-06T04:55:44.469Z,64.33
2022-09-06T04:58:11.391Z,64.52
2022-09-06T05:00:39.005Z,64.79
2022-09-06T05:03:05.918Z,63.91
2022-09-06T05:05:32.795Z,62.35
2022-09-06T05:07:59.599Z,60.35
2022-09-06T05:10:26.617Z,56.25
2022-09-06T05:12:54.741Z,56.76
2022-09-06T05:15:22.668Z,55.18
2022-09-06T05:17:49.612Z,53.98
2022-09-06T05:20:17.106Z,52.47
2022-09-06T05:22:51.644Z,51.76
2022-09-06T05:25:18.589Z,51.11
2022-09-06T05:27:45.463Z,48.75
2022-09-06T05:30:13.081Z,50.42
2022-09-06T05:32:39.963Z,50.44
2022-09-06T05:35:09.737Z,49.73
2022-09-06T05:37:36.720Z,49.28
2022-09-06T05:40:04.055Z,46.25
2022-09-06T05:42:30.903Z,46.75
2022-09-06T05:44:57.788Z,46.12
2022-09-06T05:47:24.769Z,43.98
2022-09-06T05:49:52.192Z,41.37
2022-09-06T05:52:19.877Z,42.09
2022-09-06T05:54:46.743Z,41.69
2022-09-06T05:57:15.180Z,40.82
2022-09-06T05:59:41.980Z,37.75
2022-09-06T06:02:10.306Z,37.36
2022-09-06T06:04:37.259Z,37.68
2022-09-06T06:07:04.242Z,37.63
2022-09-06T06:09:30.991Z,37.49
2022-09-06T06:11:57.863Z,37.09
2022-09-06T06:14:24.935Z,36.51
2022-09-06T06:16:52.067Z,34.90
2022-09-06T06:19:19.046Z,35.56
2022-09-06T06:21:45.854Z,36.59
2022-09-06T06:24:12.739Z,36.37
2022-09-06T06:26:39.653Z,36.26
2022-09-06T06:29:09.727Z,35.29
2022-09-06T06:31:38.310Z,34.48
2022-09-06T06:34:05.429Z,34.68
2022-09-06T06:36:34.364Z,34.88
2022-09-06T06:39:02.697Z,34.37
2022-09-06T06:41:32.341Z,33.99
2022-09-06T06:44:06.233Z,33.17
2022-09-06T06:46:37.824Z,32.53
2022-09-06T06:49:05.084Z,31.81
2022-09-06T06:51:33.754Z,30.56
2022-09-06T06:54:00.695Z,29.22
2022-09-06T06:56:36.825Z,28.43
2022-09-06T06:59:06.958Z,28.56
2022-09-06T07:01:35.885Z,28.18
2022-09-06T07:04:03.453Z,27.53
2022-09-06T07:09:19.088Z,27.39
2022-09-06T07:11:46.563Z,27.21
2022-09-06T07:14:13.384Z,27.25
2022-09-06T07:16:40.270Z,26.67
2022-09-06T07:19:07.717Z,26.04
2022-09-06T07:24:10.414Z,24.10
2022-09-06T07:26:39.726Z,25.13
2022-09-06T07:29:07.802Z,25.08
2022-09-06T07:34:22.519Z,24.35
2022-09-06T07:36:53.623Z,23.17
2022-09-06T07:39:20.846Z,24.90
2022-09-06T07:41:47.676Z,24.79
2022-09-06T07:44:14.585Z,25.29
2022-09-06T07:46:41.789Z,25.58
2022-09-06T07:49:08.826Z,26.18
2022-09-06T07:51:35.747Z,25.42
2022-09-06T07:54:26.181Z,24.19
2022-09-06T07:56:49.799Z,22.17
2022-09-06T07:59:16.778Z,22.06
2022-09-06T08:01:43.633Z,21.18
2022-09-06T08:04:14.817Z,19.76
2022-09-06T08:09:39.233Z,18.25
2022-09-06T08:12:08.985Z,18.33
2022-09-06T08:14:36.451Z,18.00
2022-09-06T08:17:04.175Z,17.59
2022-09-06T08:19:31.356Z,18.59
2022-09-06T08:21:58.265Z,18.49
2022-09-06T08:24:25.323Z,18.49
2022-09-06T08:26:52.260Z,18.26
2022-09-06T08:29:20.111Z,18.41
2022-09-06T08:31:47.015Z,19.43
2022-09-06T08:34:15.197Z,20.03
2022-09-06T08:36:42.962Z,20.26
2022-09-06T08:39:10.621Z,20.33
2022-09-06T08:41:40.262Z,21.81
2022-09-06T08:47:04.625Z,22.73
2022-09-06T08:49:35.915Z,23.05
2022-09-06T08:53:13.686Z,23.73
2022-09-06T08:55:44.715Z,24.21
2022-09-06T08:58:26.532Z,24.26
2022-09-06T09:01:06.385Z,24.99
2022-09-06T09:03:37.857Z,25.57
2022-09-06T09:06:07.680Z,24.92
2022-09-06T09:08:59.252Z,22.04
2022-09-06T09:11:26.546Z,19.80
2022-09-06T09:13:59.332Z,19.28
2022-09-06T09:16:26.857Z,17.68
2022-09-06T09:19:05.408Z,18.49
2022-09-06T09:21:36.496Z,19.22
2022-09-06T09:24:06.622Z,19.16
2022-09-06T09:26:54.250Z,20.19
2022-09-06T09:29:26.740Z,20.51
2022-09-06T09:31:55.989Z,21.04
2022-09-06T09:34:33.987Z,21.86
2022-09-06T09:40:50.502Z,24.28
2022-09-06T09:43:28.586Z,24.54
2022-09-06T09:46:07.806Z,24.96
2022-09-06T09:48:34.779Z,25.16
2022-09-06T09:51:27.657Z,25.47
2022-09-06T09:53:57.431Z,25.20
2022-09-06T09:56:34.521Z,25.24
2022-09-06T09:59:03.706Z,25.82
2022-09-06T10:01:33.884Z,25.99
2022-09-06T10:09:37.510Z,27.64
2022-09-06T10:12:05.046Z,28.09
2022-09-06T10:14:47.189Z,28.59
2022-09-06T10:17:51.070Z,28.82
2022-09-06T10:20:18.332Z,29.33
2022-09-06T10:23:00.038Z,29.71
2022-09-06T10:25:46.313Z,29.78
2022-09-06T10:28:25.511Z,29.81
2022-09-06T10:31:14.108Z,29.38
2022-09-06T10:34:13.055Z,29.43
2022-09-06T10:37:01.772Z,29.02
2022-09-06T10:39:55.990Z,28.50
2022-09-06T10:42:55.432Z,28.78
2022-09-06T10:45:40.118Z,28.15
2022-09-06T10:48:18.894Z,27.90
2022-09-06T10:50:57.473Z,27.21
2022-09-06T10:53:48.594Z,26.76
2022-09-06T10:56:32.727Z,27.36
2022-09-06T10:59:38.805Z,27.15
2022-09-06T11:02:15.192Z,27.71
2022-09-06T11:07:38.235Z,28.68
2022-09-06T11:10:31.675Z,29.37
2022-09-06T11:13:21.225Z,28.91
2022-09-06T11:16:03.512Z,29.20
2022-09-06T11:18:46.949Z,29.50
2022-09-06T11:21:51.139Z,29.51
2022-09-06T11:25:19.499Z,29.86
2022-09-06T11:27:57.323Z,30.14
2022-09-06T11:30:27.103Z,30.79
2022-09-06T11:33:28.196Z,30.48
2022-09-06T11:36:17.014Z,31.26
2022-09-06T11:39:01.256Z,30.75
2022-09-06T11:41:35.015Z,30.59
2022-09-06T11:44:02.756Z,30.37
2022-09-06T11:46:35.731Z,29.74
2022-09-06T11:49:07.945Z,29.51
2022-09-06T11:51:45.662Z,29.00
2022-09-06T11:54:15.605Z,28.55
2022-09-06T11:57:12.187Z,27.13
2022-09-06T11:59:49.315Z,27.44
2022-09-06T12:02:41.227Z,27.34
2022-09-06T12:05:25.700Z,26.86
2022-09-06T12:08:25.110Z,26.47
2022-09-06T12:11:04.363Z,27.71
2022-09-06T12:13:52.508Z,27.56
2022-09-06T12:16:20.901Z,27.62
2022-09-06T12:18:47.676Z,27.32
2022-09-06T12:21:47.579Z,27.77
2022-09-06T12:24:36.334Z,27.26
2022-09-06T12:27:22.773Z,27.21
2022-09-06T12:30:01.959Z,26.86
2022-09-06T12:32:36.963Z,26.23
2022-09-06T12:37:59.935Z,23.92
2022-09-06T12:40:35.239Z,23.80
2022-09-06T12:43:04.752Z,23.68
2022-09-06T12:45:32.137Z,23.68
2022-09-06T12:48:11.602Z,22.50
2022-09-06T12:50:40.516Z,22.29
2022-09-06T12:53:26.660Z,21.78
2022-09-06T12:56:09.210Z,20.17
2022-09-06T12:58:36.709Z,20.27
2022-09-06T13:01:07.799Z,19.80
2022-09-06T13:03:54.084Z,19.84
2022-09-06T13:06:26.635Z,20.32
2022-09-06T13:08:55.657Z,19.90
2022-09-06T13:11:31.546Z,20.59
2022-09-06T13:13:58.623Z,21.08
2022-09-06T13:16:26.898Z,20.93
2022-09-06T13:18:54.000Z,20.48
2022-09-06T13:21:29.767Z,21.24
2022-09-06T13:23:59.125Z,21.63
2022-09-06T13:26:37.229Z,21.87
2022-09-06T13:29:10.967Z,22.72
2022-09-06T13:31:38.087Z,23.21
2022-09-06T13:34:04.922Z,23.63
2022-09-06T13:36:32.669Z,24.02
2022-09-06T13:39:00.539Z,24.35
2022-09-06T13:41:27.513Z,24.62
2022-09-06T13:44:01.328Z,24.88
2022-09-06T13:46:28.200Z,25.42
2022-09-06T13:48:55.231Z,25.53
2022-09-06T13:51:21.947Z,25.90
2022-09-06T13:53:49.065Z,26.16
2022-09-06T13:56:16.872Z,26.58
2022-09-06T13:58:45.225Z,27.13
2022-09-06T14:01:14.233Z,27.21
2022-09-06T14:03:42.266Z,27.52
2022-09-06T14:06:09.878Z,27.56
2022-09-06T14:08:56.230Z,27.66
2022-09-06T14:11:25.465Z,27.99
2022-09-06T14:13:52.156Z,28.23
2022-09-06T14:16:19.058Z,28.49
2022-09-06T14:18:45.725Z,28.71
2022-09-06T14:21:12.601Z,28.99
2022-09-06T14:23:39.442Z,29.00
2022-09-06T14:26:06.071Z,29.43
2022-09-06T14:28:33.060Z,29.70
2022-09-06T14:31:09.608Z,29.98
2022-09-06T14:33:36.392Z,30.15
2022-09-06T14:36:09.965Z,30.17
2022-09-06T14:38:37.906Z,30.69
2022-09-06T14:41:05.610Z,31.08
2022-09-06T14:43:32.743Z,31.13
2022-09-06T14:46:06.586Z,31.23
2022-09-06T14:48:33.667Z,30.89
2022-09-06T14:51:07.093Z,31.07
2022-09-06T14:53:40.157Z,31.45
2022-09-06T14:56:08.165Z,31.81
2022-09-06T14:58:37.425Z,31.48
2022-09-06T15:01:24.803Z,31.48
2022-09-06T15:03:52.672Z,31.93
2022-09-06T15:06:20.477Z,31.95
2022-09-06T15:08:48.640Z,32.21
2022-09-06T15:11:16.256Z,32.38
2022-09-06T15:13:42.989Z,32.36
2022-09-06T15:16:10.549Z,32.43
2022-09-06T15:18:37.336Z,32.67
2022-09-06T15:21:14.743Z,32.76
2022-09-06T15:23:43.044Z,33.11
2022-09-06T15:26:10.651Z,33.02
2022-09-06T15:28:38.225Z,32.68
2022-09-06T15:31:05.913Z,33.13
2022-09-06T15:33:33.551Z,33.38
2022-09-06T15:36:06.424Z,33.77
2022-09-06T15:38:33.537Z,33.84
2022-09-06T15:41:07.948Z,33.69
2022-09-06T15:43:36.304Z,34.18
2022-09-06T15:46:03.401Z,34.21
2022-09-06T15:48:39.776Z,35.02
2022-09-06T15:51:06.405Z,34.82
2022-09-06T15:53:33.053Z,34.86
2022-09-06T15:56:00.751Z,35.00
2022-09-06T15:58:27.986Z,34.87
2022-09-06T16:01:03.802Z,35.05
2022-09-06T16:03:30.840Z,34.98
2022-09-06T16:08:49.049Z,35.75
2022-09-06T16:11:16.998Z,36.02
2022-09-06T16:13:44.317Z,36.28
2022-09-06T16:16:15.284Z,36.26
2022-09-06T16:18:43.420Z,36.70
2022-09-06T16:21:17.904Z,36.99
2022-09-06T16:23:48.150Z,37.67
2022-09-06T16:26:17.994Z,37.83
2022-09-06T16:28:47.916Z,38.02
2022-09-06T16:31:14.643Z,38.50
2022-09-06T16:33:42.783Z,38.32
2022-09-06T16:36:09.968Z,38.75
2022-09-06T16:38:39.866Z,39.16
2022-09-06T16:41:14.674Z,39.85
2022-09-06T16:43:41.571Z,40.48
2022-09-06T16:46:08.428Z,40.63
2022-09-06T16:48:35.352Z,41.14
2022-09-06T16:51:08.949Z,41.58
2022-09-06T16:53:35.651Z,42.10
2022-09-06T16:56:02.806Z,42.37
2022-09-06T16:58:30.000Z,43.05
2022-09-06T17:00:56.908Z,43.48
2022-09-06T17:03:23.818Z,43.89
2022-09-06T17:05:51.340Z,44.56
2022-09-06T17:08:18.060Z,45.40
2022-09-06T17:10:44.872Z,46.46
2022-09-06T17:13:12.213Z,46.79
2022-09-06T17:15:57.309Z,48.00
2022-09-06T17:18:26.115Z,48.25
2022-09-06T17:20:57.011Z,48.93
2022-09-06T17:23:24.359Z,49.89
2022-09-06T17:25:51.246Z,50.73
2022-09-06T17:28:18.366Z,51.30
2022-09-06T17:30:45.163Z,52.13
2022-09-06T17:33:13.539Z,53.15
2022-09-06T17:35:40.391Z,53.92
2022-09-06T17:38:07.079Z,54.79
2022-09-06T17:40:33.855Z,55.48
2022-09-06T17:43:00.730Z,56.19
2022-09-06T17:45:27.546Z,56.95
2022-09-06T17:47:54.157Z,57.58
2022-09-06T17:50:20.865Z,58.10
2022-09-06T17:52:50.137Z,58.24
2022-09-06T17:55:16.885Z,58.80
2022-09-06T17:57:43.559Z,59.77
2022-09-06T18:00:11.627Z,60.88
2022-09-06T18:02:38.777Z,61.64
2022-09-06T18:05:05.749Z,61.87
2022-09-06T18:07:32.440Z,62.36
2022-09-06T18:09:59.096Z,62.93
2022-09-06T18:12:26.791Z,63.49
2022-09-06T18:14:53.432Z,63.82
2022-09-06T18:17:20.098Z,64.48
2022-09-06T18:19:46.833Z,65.81
2022-09-06T18:22:13.493Z,66.14
2022-09-06T18:24:40.129Z,66.85
2022-09-06T18:27:06.901Z,67.43
2022-09-06T18:29:33.541Z,67.63
2022-09-06T18:32:00.370Z,67.68
2022-09-06T18:34:27.090Z,68.51
2022-09-06T18:36:53.846Z,68.21
2022-09-06T18:39:23.605Z,68.39
2022-09-06T18:42:06.940Z,68.74
2022-09-06T18:44:34.345Z,69.75
2022-09-06T18:47:02.356Z,70.92
2022-09-06T18:49:30.105Z,71.14
2022-09-06T18:51:59.145Z,71.24
2022-09-06T18:54:26.080Z,71.23
2022-09-06T18:56:53.228Z,71.55
2022-09-06T18:59:20.009Z,71.65
2022-09-06T19:01:46.979Z,71.45
2022-09-06T19:04:13.924Z,71.56
2022-09-06T19:06:41.172Z,70.75
2022-09-06T19:09:09.529Z,71.04
2022-09-06T19:11:36.371Z,71.10
2022-09-06T19:14:03.432Z,71.38
2022-09-06T19:16:31.498Z,71.45
2022-09-06T19:19:12.011Z,71.60
2022-09-06T19:21:46.916Z,71.83
2022-09-06T19:24:15.666Z,71.96
2022-09-06T19:26:43.534Z,71.47
2022-09-06T19:29:17.573Z,71.85
2022-09-06T19:31:45.157Z,71.93
2022-09-06T19:34:13.582Z,72.56
2022-09-06T19:36:40.325Z,72.22
2022-09-06T19:39:08.006Z,72.50
2022-09-06T19:41:38.114Z,73.13
2022-09-06T19:44:09.290Z,73.17
2022-09-06T19:46:36.527Z,74.86
2022-09-06T19:49:03.405Z,75.13
2022-09-06T19:51:30.244Z,74.77
2022-09-06T19:54:00.114Z,74.57
2022-09-06T19:56:31.699Z,74.93
2022-09-06T19:58:59.694Z,75.51
2022-09-06T20:01:29.226Z,75.54
2022-09-06T20:03:56.476Z,75.26
2022-09-06T20:06:23.200Z,75.48
2022-09-06T20:08:50.833Z,75.12
2022-09-06T20:11:18.101Z,75.40
2022-09-06T20:13:44.805Z,74.69
2022-09-06T20:16:12.548Z,74.54
2022-09-06T20:18:39.820Z,75.34
2022-09-06T20:21:06.553Z,75.75
2022-09-06T20:23:34.751Z,76.29
2022-09-06T20:26:01.337Z,76.65
2022-09-06T20:28:28.704Z,77.50
2022-09-06T20:31:00.237Z,77.47
2022-09-06T20:33:26.958Z,77.84
2022-09-06T20:35:54.605Z,77.99
2022-09-06T20:38:21.284Z,77.96
2022-09-06T20:40:47.888Z,78.23
2022-09-06T20:43:14.503Z,77.83
2022-09-06T20:45:41.675Z,77.67
2022-09-06T20:48:08.601Z,77.24
2022-09-06T20:50:35.225Z,77.46
2022-09-06T20:53:02.044Z,78.02
2022-09-06T20:55:28.624Z,78.30
2022-09-06T20:57:55.367Z,78.55
2022-09-06T21:00:26.123Z,78.39
2022-09-06T21:02:52.912Z,78.06
2022-09-06T21:05:19.586Z,77.79
2022-09-06T21:07:46.192Z,78.09
2022-09-06T21:10:12.829Z,78.19
2022-09-06T21:12:39.415Z,78.03
2022-09-06T21:15:06.460Z,78.30
2022-09-06T21:17:33.192Z,78.20
2022-09-06T21:19:59.968Z,78.53
2022-09-06T21:22:26.604Z,78.09
2022-09-06T21:24:53.275Z,78.06
2022-09-06T21:27:20.115Z,78.39
2022-09-06T21:29:46.755Z,78.43
2022-09-06T21:32:13.437Z,78.77
2022-09-06T21:34:40.194Z,78.71
2022-09-06T21:37:07.032Z,78.89
2022-09-06T21:39:33.738Z,78.44
2022-09-06T21:42:00.398Z,78.76
2022-09-06T21:44:27.035Z,78.68
2022-09-06T21:46:53.696Z,78.54
2022-09-06T21:49:20.383Z,78.68
2022-09-06T21:51:46.993Z,78.42
2022-09-06T21:54:13.649Z,78.23
2022-09-06T21:56:40.967Z,78.31
2022-09-06T21:59:08.046Z,78.62
2022-09-06T22:01:35.745Z,78.63
2022-09-06T22:04:02.718Z,78.79
2022-09-06T22:06:30.167Z,78.69
2022-09-06T22:08:57.916Z,78.61
2022-09-06T22:11:25.840Z,78.96
2022-09-06T22:13:52.993Z,78.89
2022-09-06T22:16:22.553Z,79.04
2022-09-06T22:18:49.384Z,79.27
2022-09-06T22:21:18.624Z,78.86
2022-09-06T22:24:17.640Z,78.69
2022-09-06T22:26:48.541Z,78.71
2022-09-06T22:29:16.639Z,78.81
2022-09-06T22:31:44.811Z,79.19
2022-09-06T22:34:11.727Z,79.21
2022-09-06T22:36:38.582Z,78.93
2022-09-06T22:39:05.287Z,79.10
2022-09-06T22:41:32.500Z,79.42
2022-09-06T22:44:00.022Z,79.75
2022-09-06T22:46:26.726Z,79.80
2022-09-06T22:48:53.399Z,79.52
2022-09-06T22:51:20.176Z,79.44
2022-09-06T22:53:46.829Z,79.19
2022-09-06T22:56:13.414Z,79.53
2022-09-06T22:58:40.101Z,79.83
2022-09-06T23:01:11.366Z,80.49
2022-09-06T23:03:42.794Z,81.04
2022-09-06T23:06:10.011Z,81.09
2022-09-06T23:08:37.509Z,81.00
2022-09-06T23:11:06.853Z,80.86
2022-09-06T23:13:33.877Z,80.85
2022-09-06T23:16:07.450Z,80.71
2022-09-06T23:18:34.697Z,80.44
2022-09-06T23:21:05.744Z,80.35
2022-09-06T23:23:32.497Z,79.81
2022-09-06T23:26:03.385Z,79.37
2022-09-06T23:28:30.138Z,79.75
2022-09-06T23:31:03.351Z,79.84
2022-09-06T23:33:31.399Z,80.11
2022-09-06T23:35:58.819Z,80.46
2022-09-06T23:38:25.446Z,80.65
2022-09-06T23:40:52.154Z,80.94
2022-09-06T23:43:18.779Z,81.15
2022-09-06T23:45:45.604Z,80.92
2022-09-06T23:48:12.192Z,80.43
2022-09-06T23:50:39.258Z,80.45
2022-09-06T23:53:05.923Z,81.03
2022-09-06T23:55:32.613Z,81.49
2022-09-06T23:57:59.234Z,81.62
